createdAt,value
2017-06-30T00:01:06.590Z,99.90
2017-06-30T00:03:34.209Z,99.90
2017-06-30T00:06:01.790Z,99.90
2017-06-30T00:08:29.398Z,99.90
2017-06-30T00:10:56.970Z,99.90
2017-06-30T00:13:24.542Z,99.90
2017-06-30T00:15:52.120Z,99.90
2017-06-30T00:18:19.681Z,99.90
2017-06-30T00:20:47.430Z,99.90
2017-06-30T00:23:14.995Z,99.90
2017-06-30T00:25:42.585Z,99.90
2017-06-30T00:28:10.182Z,99.90
2017-06-30T00:30:37.790Z,99.90
2017-06-30T00:33:05.374Z,99.90
2017-06-30T00:35:33.900Z,99.80
2017-06-30T00:38:01.504Z,99.70
2017-06-30T00:40:29.917Z,99.00
2017-06-30T00:42:57.491Z,99.00
2017-06-30T00:45:25.059Z,98.20
2017-06-30T00:47:52.637Z,97.40
2017-06-30T00:50:20.196Z,97.90
2017-06-30T00:55:21.742Z,98.60
2017-06-30T00:57:50.149Z,97.60
2017-06-30T01:00:17.716Z,97.50
2017-06-30T01:02:45.299Z,98.80
2017-06-30T01:05:12.891Z,97.60
2017-06-30T01:07:41.234Z,97.00
2017-06-30T01:10:08.813Z,96.90
2017-06-30T01:12:36.591Z,96.80
2017-06-30T01:15:04.157Z,96.70
2017-06-30T01:17:32.386Z,96.30
2017-06-30T01:20:00.045Z,95.50
2017-06-30T01:22:27.631Z,96.40
2017-06-30T01:24:55.231Z,96.00
2017-06-30T01:27:23.554Z,96.10
2017-06-30T01:29:51.167Z,96.10
2017-06-30T01:32:18.772Z,95.50
2017-06-30T01:34:46.370Z,94.80
2017-06-30T01:37:13.952Z,95.60
2017-06-30T01:39:42.335Z,94.50
2017-06-30T01:42:09.893Z,94.50
2017-06-30T01:44:38.239Z,93.80
2017-06-30T01:47:05.800Z,93.80
2017-06-30T01:49:33.383Z,93.80
2017-06-30T01:52:00.941Z,93.60
2017-06-30T01:54:28.565Z,93.80
2017-06-30T01:56:56.147Z,93.30
2017-06-30T01:59:23.740Z,94.30
2017-06-30T02:01:51.298Z,94.00
2017-06-30T02:04:18.918Z,93.50
2017-06-30T02:06:46.516Z,93.10
2017-06-30T02:09:14.098Z,94.00
2017-06-30T02:11:41.654Z,93.60
2017-06-30T02:14:10.010Z,93.50
2017-06-30T02:16:37.563Z,93.40
2017-06-30T02:19:05.699Z,93.60
2017-06-30T02:21:33.262Z,93.70
2017-06-30T02:24:00.874Z,93.50
2017-06-30T02:26:28.454Z,93.30
2017-06-30T02:28:56.024Z,93.30
2017-06-30T02:31:24.361Z,93.60
2017-06-30T02:33:51.921Z,93.40
2017-06-30T02:36:19.493Z,94.40
2017-06-30T02:38:47.104Z,94.00
2017-06-30T02:41:14.658Z,93.70
2017-06-30T02:43:42.225Z,93.20
2017-06-30T02:46:10.607Z,92.40
2017-06-30T02:48:38.951Z,92.40
2017-06-30T02:51:06.530Z,92.40
2017-06-30T02:53:34.875Z,92.80
2017-06-30T02:56:02.458Z,92.70
2017-06-30T02:58:30.051Z,92.20
2017-06-30T03:00:58.380Z,92.10
2017-06-30T03:03:25.923Z,92.00
2017-06-30T03:05:53.506Z,91.80
2017-06-30T03:08:21.081Z,92.10
2017-06-30T03:10:48.870Z,92.00
2017-06-30T03:13:16.532Z,91.80
2017-06-30T03:15:44.858Z,91.60
2017-06-30T03:18:12.620Z,91.60
2017-06-30T03:20:40.186Z,92.10
2017-06-30T03:23:07.779Z,92.10
2017-06-30T03:25:35.467Z,92.10
2017-06-30T03:28:03.813Z,92.10
2017-06-30T03:30:31.976Z,92.10
2017-06-30T03:32:59.549Z,91.90
2017-06-30T03:35:28.142Z,91.80
2017-06-30T03:37:55.772Z,91.80
2017-06-30T03:40:23.374Z,92.20
2017-06-30T03:42:51.765Z,91.80
2017-06-30T03:45:19.342Z,91.80
2017-06-30T03:47:47.695Z,92.00
2017-06-30T03:50:15.258Z,92.00
2017-06-30T03:52:42.883Z,92.40
2017-06-30T03:55:10.451Z,91.80
2017-06-30T03:57:38.063Z,92.20
2017-06-30T04:00:06.397Z,93.30
2017-06-30T04:02:33.948Z,93.20
2017-06-30T04:05:01.634Z,93.40
2017-06-30T04:07:29.205Z,92.70
2017-06-30T04:09:56.779Z,92.40
2017-06-30T04:12:24.350Z,92.90
2017-06-30T04:14:52.714Z,93.40
2017-06-30T04:17:20.302Z,93.40
2017-06-30T04:19:48.722Z,91.80
2017-06-30T04:22:16.298Z,91.70
2017-06-30T04:24:43.884Z,91.50
2017-06-30T04:27:11.446Z,91.30
2017-06-30T04:29:39.033Z,91.20
2017-06-30T04:32:07.378Z,91.10
2017-06-30T04:34:34.942Z,91.10
2017-06-30T04:37:02.513Z,90.80
2017-06-30T04:39:30.102Z,90.80
2017-06-30T04:41:58.426Z,90.00
2017-06-30T04:44:26.006Z,89.90
2017-06-30T04:46:53.634Z,89.50
2017-06-30T04:49:21.194Z,89.10
2017-06-30T04:51:48.789Z,89.30
2017-06-30T04:54:16.360Z,89.20
2017-06-30T04:56:43.951Z,89.00
2017-06-30T04:59:12.299Z,87.90
2017-06-30T05:01:39.868Z,87.90
2017-06-30T05:04:07.441Z,89.00
2017-06-30T05:06:35.770Z,88.60
2017-06-30T05:09:03.321Z,88.00
2017-06-30T05:11:30.930Z,87.50
2017-06-30T05:13:58.482Z,87.50
2017-06-30T05:16:28.596Z,87.70
2017-06-30T05:18:56.162Z,87.90
2017-06-30T05:21:23.797Z,86.50
2017-06-30T05:23:51.399Z,86.00
2017-06-30T05:26:19.141Z,84.50
2017-06-30T05:28:46.742Z,84.50
2017-06-30T05:31:14.323Z,84.50
2017-06-30T05:33:41.881Z,84.40
2017-06-30T05:36:10.226Z,83.30
2017-06-30T05:38:37.780Z,83.30
2017-06-30T05:41:05.350Z,83.70
2017-06-30T05:43:32.923Z,83.00
2017-06-30T05:46:00.495Z,84.00
2017-06-30T05:48:28.073Z,82.60
2017-06-30T05:50:56.485Z,82.40
2017-06-30T05:53:24.241Z,82.40
2017-06-30T05:55:51.840Z,82.10
2017-06-30T05:58:19.401Z,81.20
2017-06-30T06:00:47.122Z,81.40
2017-06-30T06:03:14.685Z,80.80
2017-06-30T06:05:42.231Z,80.70
2017-06-30T06:08:10.593Z,79.70
2017-06-30T06:10:38.142Z,79.70
2017-06-30T06:13:05.742Z,78.60
2017-06-30T06:15:33.302Z,79.60
2017-06-30T06:18:00.841Z,80.10
2017-06-30T06:20:28.411Z,77.50
2017-06-30T06:22:56.747Z,77.10
2017-06-30T06:25:24.394Z,77.40
2017-06-30T06:27:51.953Z,77.10
2017-06-30T06:30:19.545Z,75.80
2017-06-30T06:32:47.101Z,74.10
2017-06-30T06:35:14.679Z,71.40
2017-06-30T06:37:42.238Z,68.60
2017-06-30T06:40:09.799Z,68.60
2017-06-30T06:42:37.376Z,68.80
2017-06-30T06:45:04.938Z,69.10
2017-06-30T06:47:32.491Z,69.10
2017-06-30T06:50:00.220Z,69.00
2017-06-30T06:52:27.778Z,68.70
2017-06-30T06:54:55.442Z,69.00
2017-06-30T06:57:23.016Z,69.40
2017-06-30T06:59:50.592Z,68.40
2017-06-30T07:02:18.162Z,69.10
2017-06-30T07:04:45.722Z,70.50
2017-06-30T07:07:13.317Z,70.50
2017-06-30T07:09:41.630Z,65.70
2017-06-30T07:12:09.169Z,65.60
2017-06-30T07:14:36.738Z,60.30
2017-06-30T07:17:04.331Z,59.50
2017-06-30T07:19:32.091Z,59.00
2017-06-30T07:21:59.673Z,58.40
2017-06-30T07:24:27.243Z,58.20
2017-06-30T07:26:54.802Z,57.10
2017-06-30T07:29:22.371Z,52.90
2017-06-30T07:31:49.993Z,48.70
2017-06-30T07:34:17.573Z,48.40
2017-06-30T07:36:45.143Z,47.70
2017-06-30T07:39:12.713Z,47.80
2017-06-30T07:41:40.298Z,46.50
2017-06-30T07:44:08.617Z,45.30
2017-06-30T07:46:36.185Z,44.90
2017-06-30T07:49:03.773Z,45.80
2017-06-30T07:51:31.414Z,45.90
2017-06-30T07:53:58.996Z,45.20
2017-06-30T07:56:26.567Z,48.30
2017-06-30T07:58:54.156Z,47.00
2017-06-30T08:01:21.748Z,49.60
2017-06-30T08:03:49.321Z,49.20
2017-06-30T08:06:17.110Z,51.80
2017-06-30T08:08:44.676Z,52.30
2017-06-30T08:11:12.300Z,54.20
2017-06-30T08:13:40.014Z,54.60
2017-06-30T08:16:07.586Z,56.70
2017-06-30T08:18:35.154Z,57.40
2017-06-30T08:21:02.717Z,60.60
2017-06-30T08:23:30.277Z,60.70
2017-06-30T08:25:57.851Z,62.50
2017-06-30T08:28:26.186Z,60.80
2017-06-30T08:30:53.837Z,60.80
2017-06-30T08:33:21.431Z,58.90
2017-06-30T08:35:48.982Z,61.00
2017-06-30T08:38:16.587Z,59.10
2017-06-30T08:40:44.914Z,58.70
2017-06-30T08:43:12.498Z,58.60
2017-06-30T08:45:40.184Z,59.50
2017-06-30T08:48:07.743Z,60.30
2017-06-30T08:50:35.351Z,58.50
2017-06-30T08:53:02.899Z,58.90
2017-06-30T08:55:30.581Z,58.60
2017-06-30T08:57:58.168Z,59.90
2017-06-30T09:00:25.755Z,59.60
2017-06-30T09:02:53.305Z,58.40
2017-06-30T09:05:20.967Z,59.40
2017-06-30T09:07:48.527Z,57.90
2017-06-30T09:10:16.091Z,57.80
2017-06-30T09:12:43.679Z,58.60
2017-06-30T09:15:11.228Z,58.60
2017-06-30T09:17:39.585Z,60.70
2017-06-30T09:20:07.153Z,60.00
2017-06-30T09:22:34.736Z,60.40
2017-06-30T09:25:02.286Z,60.50
2017-06-30T09:27:29.907Z,57.70
2017-06-30T09:29:58.311Z,55.40
2017-06-30T09:32:25.960Z,55.30
2017-06-30T09:34:53.517Z,51.90
2017-06-30T09:37:21.092Z,48.70
2017-06-30T09:39:48.654Z,49.40
2017-06-30T09:42:16.236Z,46.50
2017-06-30T09:44:43.804Z,40.20
2017-06-30T09:47:11.453Z,40.40
2017-06-30T09:49:39.038Z,41.40
2017-06-30T09:52:06.612Z,42.10
2017-06-30T09:54:34.962Z,46.50
2017-06-30T09:57:02.531Z,45.70
2017-06-30T09:59:30.146Z,48.30
2017-06-30T10:01:57.702Z,46.50
2017-06-30T10:04:25.264Z,45.70
2017-06-30T10:06:52.834Z,47.60
2017-06-30T10:09:20.413Z,47.90
2017-06-30T10:11:47.972Z,48.00
2017-06-30T10:14:15.566Z,49.70
2017-06-30T10:16:43.120Z,50.90
2017-06-30T10:19:10.674Z,52.50
2017-06-30T10:21:38.260Z,53.30
2017-06-30T10:24:05.816Z,54.10
2017-06-30T10:26:33.375Z,55.00
2017-06-30T10:29:00.939Z,54.60
2017-06-30T10:31:28.516Z,52.60
2017-06-30T10:33:56.096Z,52.80
2017-06-30T10:36:24.429Z,50.80
2017-06-30T10:38:51.995Z,50.80
2017-06-30T10:41:19.562Z,51.30
2017-06-30T10:43:47.134Z,52.60
2017-06-30T10:46:14.721Z,52.10
2017-06-30T10:48:43.039Z,54.20
2017-06-30T10:51:10.626Z,54.10
2017-06-30T10:53:38.178Z,53.50
2017-06-30T10:56:05.755Z,52.00
2017-06-30T10:58:33.326Z,51.20
2017-06-30T11:01:00.946Z,49.70
2017-06-30T11:03:28.531Z,47.70
2017-06-30T11:05:56.275Z,44.80
2017-06-30T11:08:23.850Z,43.20
2017-06-30T11:10:51.414Z,44.30
2017-06-30T11:13:18.975Z,44.90
2017-06-30T11:15:46.553Z,46.50
2017-06-30T11:18:14.113Z,48.00
2017-06-30T11:20:41.702Z,50.80
2017-06-30T11:23:09.289Z,50.90
2017-06-30T11:25:36.854Z,51.60
2017-06-30T11:28:04.440Z,52.80
2017-06-30T11:30:32.012Z,51.90
2017-06-30T11:32:59.663Z,51.90
2017-06-30T11:35:27.227Z,50.20
2017-06-30T11:37:54.812Z,48.90
2017-06-30T11:40:22.396Z,46.70
2017-06-30T11:42:49.976Z,47.60
2017-06-30T11:45:18.388Z,48.00
2017-06-30T11:47:46.053Z,47.90
2017-06-30T11:50:13.615Z,47.70
2017-06-30T11:52:41.209Z,47.80
2017-06-30T11:55:08.770Z,47.10
2017-06-30T11:57:36.359Z,48.90
2017-06-30T12:00:03.940Z,49.50
2017-06-30T12:02:31.510Z,48.10
2017-06-30T12:04:59.101Z,49.30
2017-06-30T12:07:26.780Z,50.20
2017-06-30T12:09:54.346Z,49.30
2017-06-30T12:12:22.030Z,49.10
2017-06-30T12:14:49.610Z,48.70
2017-06-30T12:17:17.197Z,48.00
2017-06-30T12:19:44.756Z,48.30
2017-06-30T12:22:12.354Z,46.10
2017-06-30T12:24:39.978Z,46.30
2017-06-30T12:27:07.555Z,46.10
2017-06-30T12:29:35.152Z,46.10
2017-06-30T12:32:02.714Z,45.00
2017-06-30T12:34:30.278Z,46.10
2017-06-30T12:36:57.861Z,44.50
2017-06-30T12:39:26.211Z,40.30
2017-06-30T12:41:53.775Z,40.70
2017-06-30T12:44:21.547Z,38.80
2017-06-30T12:46:49.104Z,39.80
2017-06-30T12:49:16.663Z,40.50
2017-06-30T12:51:44.252Z,42.90
2017-06-30T12:54:11.821Z,42.10
2017-06-30T12:56:39.430Z,41.20
2017-06-30T12:59:07.092Z,41.60
2017-06-30T13:01:34.655Z,41.20
2017-06-30T13:04:02.316Z,40.90
2017-06-30T13:06:29.951Z,39.70
2017-06-30T13:08:58.350Z,39.60
2017-06-30T13:11:25.955Z,39.60
2017-06-30T13:13:53.594Z,41.20
2017-06-30T13:16:21.362Z,40.30
2017-06-30T13:18:49.109Z,40.40
2017-06-30T13:21:16.699Z,41.40
2017-06-30T13:23:44.257Z,39.60
2017-06-30T13:26:11.845Z,38.10
2017-06-30T13:28:39.408Z,38.30
2017-06-30T13:31:06.971Z,40.30
2017-06-30T13:33:34.551Z,39.30
2017-06-30T13:36:02.131Z,36.70
2017-06-30T13:38:30.498Z,38.50
2017-06-30T13:40:58.869Z,37.80
2017-06-30T13:43:26.694Z,37.60
2017-06-30T13:45:54.276Z,37.10
2017-06-30T13:48:21.837Z,38.50
2017-06-30T13:50:49.431Z,38.50
2017-06-30T13:53:16.982Z,37.10
2017-06-30T13:55:44.606Z,36.20
2017-06-30T13:58:12.203Z,38.00
2017-06-30T14:00:39.770Z,37.50
2017-06-30T14:03:07.365Z,38.60
2017-06-30T14:05:35.010Z,39.80
2017-06-30T14:08:03.362Z,39.90
2017-06-30T14:10:30.948Z,40.30
2017-06-30T14:13:08.599Z,39.00
2017-06-30T14:15:36.187Z,37.50
2017-06-30T14:18:03.762Z,36.20
2017-06-30T14:20:31.346Z,35.80
2017-06-30T14:22:59.668Z,39.40
2017-06-30T14:25:27.258Z,39.50
2017-06-30T14:27:54.839Z,39.90
2017-06-30T14:30:22.411Z,40.60
2017-06-30T14:32:49.995Z,41.60
2017-06-30T14:35:17.557Z,41.60
2017-06-30T14:37:45.243Z,41.40
2017-06-30T14:40:12.837Z,39.90
2017-06-30T14:42:40.392Z,40.10
2017-06-30T14:45:07.970Z,41.20
2017-06-30T14:47:35.561Z,39.70
2017-06-30T14:50:03.923Z,41.80
2017-06-30T14:52:31.486Z,41.70
2017-06-30T14:54:59.025Z,42.20
2017-06-30T14:57:26.824Z,41.60
2017-06-30T14:59:55.165Z,42.40
2017-06-30T15:02:22.740Z,42.30
2017-06-30T15:04:50.307Z,42.90
2017-06-30T15:07:17.901Z,43.60
2017-06-30T15:09:46.250Z,43.40
2017-06-30T15:12:13.826Z,43.50
2017-06-30T15:14:41.393Z,42.80
2017-06-30T15:17:08.967Z,41.70
2017-06-30T15:19:37.306Z,42.70
2017-06-30T15:22:04.912Z,42.60
2017-06-30T15:24:32.506Z,43.40
2017-06-30T15:27:00.086Z,44.90
2017-06-30T15:29:27.658Z,45.20
2017-06-30T15:31:55.259Z,45.30
2017-06-30T15:34:23.629Z,46.30
2017-06-30T15:36:51.242Z,46.30
2017-06-30T15:39:18.804Z,46.00
2017-06-30T15:41:46.378Z,45.20
2017-06-30T15:44:13.956Z,45.60
2017-06-30T15:46:41.510Z,44.00
2017-06-30T15:49:09.061Z,43.90
2017-06-30T15:51:36.637Z,42.60
2017-06-30T15:54:04.217Z,43.80
2017-06-30T15:56:31.914Z,44.30
2017-06-30T15:59:00.271Z,44.00
2017-06-30T16:01:27.838Z,44.00
2017-06-30T16:03:56.176Z,45.30
2017-06-30T16:06:23.831Z,45.30
2017-06-30T16:08:51.391Z,43.60
2017-06-30T16:11:18.991Z,44.20
2017-06-30T16:13:46.576Z,45.20
2017-06-30T16:16:14.897Z,44.70
2017-06-30T16:18:42.505Z,44.20
2017-06-30T16:21:10.102Z,43.90
2017-06-30T16:23:37.665Z,45.50
2017-06-30T16:26:05.252Z,45.70
2017-06-30T16:28:32.836Z,46.20
2017-06-30T16:31:00.441Z,46.40
2017-06-30T16:33:28.034Z,46.70
2017-06-30T16:35:55.594Z,47.40
2017-06-30T16:38:23.267Z,48.50
2017-06-30T16:40:50.850Z,48.20
2017-06-30T16:43:18.422Z,48.00
2017-06-30T16:45:46.006Z,48.20
2017-06-30T16:48:14.326Z,49.20
2017-06-30T16:50:41.898Z,49.20
2017-06-30T16:53:09.477Z,48.80
2017-06-30T16:55:37.049Z,50.10
2017-06-30T16:58:04.628Z,49.60
2017-06-30T17:00:32.199Z,48.70
2017-06-30T17:03:00.541Z,48.80
2017-06-30T17:05:28.130Z,48.70
2017-06-30T17:07:55.679Z,47.70
2017-06-30T17:10:23.319Z,47.90
2017-06-30T17:12:50.895Z,47.80
2017-06-30T17:15:18.480Z,48.50
2017-06-30T17:17:46.035Z,48.30
2017-06-30T17:20:13.603Z,49.30
2017-06-30T17:22:41.251Z,49.80
2017-06-30T17:25:09.292Z,50.80
2017-06-30T17:27:36.927Z,51.20
2017-06-30T17:30:05.339Z,54.10
2017-06-30T17:32:32.934Z,54.10
2017-06-30T17:35:00.504Z,55.80
2017-06-30T17:37:28.082Z,57.20
2017-06-30T17:39:55.670Z,59.70
2017-06-30T17:42:23.249Z,60.30
2017-06-30T17:44:50.833Z,63.10
2017-06-30T17:47:18.476Z,64.80
2017-06-30T17:49:46.027Z,64.40
2017-06-30T17:52:13.631Z,65.00
2017-06-30T17:54:41.352Z,66.00
2017-06-30T17:57:08.952Z,66.50
2017-06-30T17:59:36.532Z,66.60
2017-06-30T18:02:04.102Z,67.60
2017-06-30T18:04:31.670Z,67.30
2017-06-30T18:06:59.258Z,68.00
2017-06-30T18:09:26.837Z,69.70
2017-06-30T18:11:54.438Z,70.10
2017-06-30T18:14:22.063Z,71.60
2017-06-30T18:16:49.641Z,71.70
2017-06-30T18:19:17.239Z,71.20
2017-06-30T18:21:44.853Z,69.50
2017-06-30T18:24:12.481Z,70.30
2017-06-30T18:26:40.845Z,68.30
2017-06-30T18:29:08.449Z,68.30
2017-06-30T18:31:36.095Z,68.70
2017-06-30T18:34:04.463Z,68.40
2017-06-30T18:36:32.053Z,68.30
2017-06-30T18:38:59.641Z,67.60
2017-06-30T18:41:27.202Z,68.50
2017-06-30T18:43:54.794Z,69.10
2017-06-30T18:46:22.382Z,68.60
2017-06-30T18:48:50.728Z,69.80
2017-06-30T18:51:18.315Z,69.70
2017-06-30T18:53:46.649Z,68.40
2017-06-30T18:56:14.223Z,68.10
2017-06-30T18:58:41.832Z,69.30
2017-06-30T19:01:10.172Z,69.40
2017-06-30T19:03:37.731Z,69.40
2017-06-30T19:06:05.347Z,69.30
2017-06-30T19:08:32.941Z,69.70
2017-06-30T19:11:00.510Z,70.00
2017-06-30T19:13:28.093Z,71.00
2017-06-30T19:15:55.656Z,71.10
2017-06-30T19:18:23.251Z,71.00
2017-06-30T19:20:50.817Z,71.40
2017-06-30T19:23:18.606Z,71.90
2017-06-30T19:25:46.212Z,72.60
2017-06-30T19:28:13.771Z,72.80
2017-06-30T19:30:41.351Z,73.30
2017-06-30T19:33:09.679Z,74.90
2017-06-30T19:35:37.271Z,74.20
2017-06-30T19:38:04.879Z,74.20
2017-06-30T19:40:32.461Z,74.00
2017-06-30T19:43:00.035Z,73.10
2017-06-30T19:45:27.627Z,73.20
2017-06-30T19:47:55.241Z,72.00
2017-06-30T19:50:22.854Z,70.60
2017-06-30T19:52:50.430Z,70.80
2017-06-30T19:55:18.962Z,69.80
2017-06-30T19:57:46.523Z,70.10
2017-06-30T20:00:14.101Z,70.30
2017-06-30T20:02:42.038Z,71.30
2017-06-30T20:05:09.903Z,70.40
2017-06-30T20:07:37.531Z,71.10
2017-06-30T20:10:05.918Z,69.00
2017-06-30T20:12:33.482Z,68.90
2017-06-30T20:15:01.103Z,68.80
2017-06-30T20:17:28.672Z,68.80
2017-06-30T20:19:56.267Z,68.80
2017-06-30T20:22:23.847Z,68.90
2017-06-30T20:24:51.398Z,69.00
2017-06-30T20:27:19.772Z,69.10
2017-06-30T20:29:47.340Z,69.10
2017-06-30T20:32:14.917Z,70.00
2017-06-30T20:34:43.332Z,70.40
2017-06-30T20:37:10.920Z,70.30
2017-06-30T20:39:40.131Z,71.00
2017-06-30T20:42:07.882Z,71.00
2017-06-30T20:44:35.494Z,71.70
2017-06-30T20:47:03.086Z,70.50
2017-06-30T20:49:30.658Z,71.50
2017-06-30T20:51:58.240Z,71.80
2017-06-30T20:54:25.799Z,70.70
2017-06-30T20:56:53.379Z,71.60
2017-06-30T20:59:20.943Z,72.50
2017-06-30T21:01:48.910Z,72.20
2017-06-30T21:04:16.525Z,71.50
2017-06-30T21:06:44.102Z,72.00
2017-06-30T21:09:12.330Z,72.40
2017-06-30T21:11:39.899Z,73.60
2017-06-30T21:14:07.580Z,72.60
2017-06-30T21:16:35.189Z,72.50
2017-06-30T21:19:03.543Z,72.50
2017-06-30T21:21:31.770Z,73.80
2017-06-30T21:23:59.403Z,73.40
2017-06-30T21:26:27.237Z,73.40
2017-06-30T21:28:54.846Z,73.80
2017-06-30T21:31:22.434Z,72.50
2017-06-30T21:33:50.837Z,74.60
2017-06-30T21:36:18.404Z,74.60
2017-06-30T21:38:45.994Z,75.40
2017-06-30T21:41:13.559Z,76.10
2017-06-30T21:43:41.147Z,75.10
2017-06-30T21:46:08.730Z,74.70
2017-06-30T21:48:37.654Z,75.30
2017-06-30T21:51:05.303Z,75.40
2017-06-30T21:53:32.975Z,74.10
2017-06-30T21:56:00.546Z,74.40
2017-06-30T21:58:28.106Z,74.60
2017-06-30T22:00:55.909Z,74.60
2017-06-30T22:03:23.692Z,75.10
2017-06-30T22:05:51.279Z,75.30
2017-06-30T22:08:19.615Z,75.50
2017-06-30T22:10:47.208Z,75.40
2017-06-30T22:13:15.635Z,76.40
2017-06-30T22:15:43.288Z,75.70
2017-06-30T22:18:10.895Z,75.50
2017-06-30T22:20:38.514Z,75.50
2017-06-30T22:23:06.084Z,73.70
2017-06-30T22:25:33.736Z,74.10
2017-06-30T22:28:01.302Z,74.30
2017-06-30T22:30:28.943Z,75.00
2017-06-30T22:32:56.514Z,75.40
2017-06-30T22:35:24.087Z,73.90
2017-06-30T22:37:52.214Z,74.10
2017-06-30T22:40:19.775Z,74.40
2017-06-30T22:42:47.319Z,73.30
2017-06-30T22:45:15.363Z,74.40
2017-06-30T22:47:42.994Z,74.00
2017-06-30T22:50:11.389Z,73.20
2017-06-30T22:52:38.986Z,73.20
2017-06-30T22:55:06.550Z,73.40
2017-06-30T22:57:34.151Z,74.30
2017-06-30T23:00:02.483Z,73.20
2017-06-30T23:02:30.090Z,73.10
2017-06-30T23:05:07.558Z,73.70
2017-06-30T23:07:35.234Z,74.40
2017-06-30T23:10:02.830Z,73.70
2017-06-30T23:12:30.467Z,73.80
2017-06-30T23:14:58.051Z,74.60
2017-06-30T23:17:25.611Z,74.30
2017-06-30T23:19:53.974Z,75.10
2017-06-30T23:22:21.557Z,75.00
2017-06-30T23:24:49.900Z,74.40
2017-06-30T23:27:17.465Z,74.30
2017-06-30T23:29:45.047Z,75.10
2017-06-30T23:32:12.625Z,74.10
2017-06-30T23:34:40.192Z,74.20
2017-06-30T23:37:07.767Z,74.80
2017-06-30T23:39:35.340Z,74.70
2017-06-30T23:42:02.911Z,74.50
2017-06-30T23:44:30.505Z,74.30
2017-06-30T23:46:58.037Z,74.90
2017-06-30T23:49:25.591Z,74.40
2017-06-30T23:51:53.166Z,75.00
2017-06-30T23:54:20.828Z,75.40
2017-06-30T23:56:48.410Z,75.80
2017-06-30T23:59:15.969Z,75.30
